Time;durP1;ratioP1;P1;durP2;ratioP2;P2;SDS_P1;SDS_P2;PMS_P1;PMS_P2;Temp;Humidity;BMP_temperature;BMP_pressure;BME280_temperature;BME280_humidity;BME280_pressure;Samples;Min_cycle;Max_cycle;Signal;HPM_P1;HPM_P2
2023/10/23 00:01:49;;;;;;;;;;;;;;;;;;5149640;27;19923;-44
2023/10/23 00:04:15;;;;;;;;;;;;;;;;;;5149483;27;19923;-46
2023/10/23 00:06:40;;;;;;;;;;;;;;;;;;5148745;27;19986;-46
2023/10/23 00:09:06;;;;;;;;;;;;;;;;;;5148405;27;19950;-43
2023/10/23 00:11:31;;;;;;;;;;;;;;;;;;5149202;27;19923;-44
2023/10/23 00:13:57;;;;;;;;;;;;;;;;;;5148715;27;20014;-45
2023/10/23 00:16:22;;;;;;;;;;;;;;;;;;5148633;27;19929;-44
2023/10/23 00:18:49;;;;;;;;;;;;;;;;;;5148573;27;19930;-47
2023/10/23 00:21:14;;;;;;;;;;;;;;;;;;5138819;27;19927;-44
2023/10/23 00:23:40;;;;;;;;;;;;;;;;;;5149726;27;19983;-44
2023/10/23 00:26:05;;;;;;;;;;;;;;;;;;5148909;27;19962;-43
2023/10/23 00:28:31;;;;;;;;;;;;;;;;;;5139969;27;20320;-44
2023/10/23 00:30:57;;;;;;;;;;;;;;;;;;5128914;28;20390;-46
2023/10/23 00:33:22;;;;;;;;;;;;;;;;;;5140220;27;19966;-45
2023/10/23 00:35:48;;;;;;;;;;;;;;;;;;5147727;27;20018;-44
2023/10/23 00:38:13;;;;;;;;;;;;;;;;;;5148410;27;20411;-44
2023/10/23 00:40:39;;;;;;;;;;;;;;;;;;5148585;27;19927;-45
2023/10/23 00:43:04;;;;;;;;;;;;;;;;;;5148775;27;19974;-44
2023/10/23 00:45:30;;;;;;;;;;;;;;;;;;5148557;27;20055;-44
2023/10/23 00:47:55;;;;;;;;;;;;;;;;;;5144690;27;20267;-45
2023/10/23 00:50:21;;;;;;;;;;;;;;;;;;5128154;28;20427;-44
2023/10/23 00:52:46;;;;;;;;;;;;;;;;;;5128556;28;19931;-46
2023/10/23 00:55:11;;;;;;;;;;;;;;;;;;5131438;27;19933;-45
2023/10/23 00:57:37;;;;;;;;;;;;;;;;;;5146979;27;19958;-46
2023/10/23 01:00:04;;;;;;;;;;;;;;;;;;5148553;27;20063;-44
2023/10/23 01:02:29;;;;;;;;;;;;;;;;;;5149414;27;19943;-44
2023/10/23 01:04:55;;;;;;;;;;;;;;;;;;5147841;27;20013;-43
2023/10/23 01:07:20;;;;;;;;;;;;;;;;;;5147720;27;19923;-44
2023/10/23 01:09:46;;;;;;;;;;;;;;;;;;5148375;27;20386;-45
2023/10/23 01:12:11;;;;;;;;;;;;;;;;;;5149102;27;20033;-43
2023/10/23 01:14:36;;;;;;;;;;;;;;;;;;5149427;27;20308;-44
2023/10/23 01:17:02;;;;;;;;;;;;;;;;;;5147200;27;19923;-45
2023/10/23 01:19:28;;;;;;;;;;;;;;;;;;5152311;27;19922;-45
2023/10/23 01:21:53;;;;;;;;;;;;;;;;;;5170110;27;20442;-47
2023/10/23 01:24:18;;;;;;;;;;;;;;;;;;5169699;27;19962;-44
2023/10/23 01:26:44;;;;;;;;;;;;;;;;;;5164625;27;19931;-43
2023/10/23 01:29:09;;;;;;;;;;;;;;;;;;5147586;27;19927;-43
2023/10/23 01:31:35;;;;;;;;;;;;;;;;;;5148156;27;20062;-43
2023/10/23 01:34:00;;;;;;;;;;;;;;;;;;5148783;27;19923;-47
2023/10/23 01:36:26;;;;;;;;;;;;;;;;;;5146421;27;20253;-44
2023/10/23 01:38:51;;;;;;;;;;;;;;;;;;5136923;27;19934;-43
2023/10/23 01:41:17;;;;;;;;;;;;;;;;;;5127922;27;20419;-43
2023/10/23 01:43:42;;;;;;;;;;;;;;;;;;5127704;28;19967;-45
2023/10/23 01:46:08;;;;;;;;;;;;;;;;;;5130848;27;19962;-47
2023/10/23 01:48:33;;;;;;;;;;;;;;;;;;5139120;27;19924;-47
2023/10/23 01:50:59;;;;;;;;;;;;;;;;;;5127843;28;20437;-45
2023/10/23 01:53:24;;;;;;;;;;;;;;;;;;5128580;28;19953;-46
2023/10/23 01:55:50;;;;;;;;;;;;;;;;;;5127637;28;20015;-44
2023/10/23 01:58:15;;;;;;;;;;;;;;;;;;5141901;27;19927;-44
2023/10/23 02:00:41;;;;;;;;;;;;;;;;;;5148471;27;20390;-45
2023/10/23 02:03:07;;;;;;;;;;;;;;;;;;5148760;27;19932;-43
2023/10/23 02:05:33;;;;;;;;;;;;;;;;;;5148308;27;19923;-49
2023/10/23 02:07:58;;;;;;;;;;;;;;;;;;5142285;27;19923;-45
2023/10/23 02:10:24;;;;;;;;;;;;;;;;;;5127462;28;20475;-44
2023/10/23 02:12:49;;;;;;;;;;;;;;;;;;5127646;28;20248;-45
2023/10/23 02:15:16;;;;;;;;;;;;;;;;;;5127488;27;19927;-45
2023/10/23 02:17:42;;;;;;;;;;;;;;;;;;5139568;27;19934;-45
2023/10/23 02:20:07;;;;;;;;;;;;;;;;;;5162106;27;19923;-45
2023/10/23 02:22:33;;;;;;;;;;;;;;;;;;5172614;27;19946;-45
2023/10/23 02:24:58;;;;;;;;;;;;;;;;;;5172783;27;20181;-43
2023/10/23 02:27:24;;;;;;;;;;;;;;;;;;5163942;27;19923;-45
2023/10/23 02:29:49;;;;;;;;;;;;;;;;;;5131286;27;20375;-44
2023/10/23 02:32:15;;;;;;;;;;;;;;;;;;5130616;28;20277;-45
2023/10/23 02:34:42;;;;;;;;;;;;;;;;;;5130750;28;19934;-44
2023/10/23 02:37:08;;;;;;;;;;;;;;;;;;5141969;27;20352;-43
2023/10/23 02:39:33;;;;;;;;;;;;;;;;;;5149905;27;19927;-43
2023/10/23 02:41:59;;;;;;;;;;;;;;;;;;5151805;27;20025;-48
2023/10/23 02:44:25;;;;;;;;;;;;;;;;;;5151258;27;19930;-44
2023/10/23 02:46:50;;;;;;;;;;;;;;;;;;5151053;27;19930;-44
2023/10/23 02:49:17;;;;;;;;;;;;;;;;;;5149709;27;20321;-45
2023/10/23 02:51:43;;;;;;;;;;;;;;;;;;5150255;27;20003;-45
2023/10/23 02:54:09;;;;;;;;;;;;;;;;;;5151022;27;20071;-46
2023/10/23 02:56:34;;;;;;;;;;;;;;;;;;5149047;27;19933;-45
2023/10/23 02:59:00;;;;;;;;;;;;;;;;;;5149554;27;20434;-43
2023/10/23 03:01:25;;;;;;;;;;;;;;;;;;5150703;27;19927;-43
2023/10/23 03:03:51;;;;;;;;;;;;;;;;;;5150679;27;20030;-45
2023/10/23 03:06:16;;;;;;;;;;;;;;;;;;5150044;27;20563;-44
2023/10/23 03:08:42;;;;;;;;;;;;;;;;;;5140465;27;19924;-45
2023/10/23 03:11:07;;;;;;;;;;;;;;;;;;5129447;28;19993;-44
2023/10/23 03:13:33;;;;;;;;;;;;;;;;;;5130025;28;19923;-45
2023/10/23 03:15:59;;;;;;;;;;;;;;;;;;5129199;28;20013;-46
2023/10/23 03:18:24;;;;;;;;;;;;;;;;;;5140099;27;20020;-44
2023/10/23 03:20:50;;;;;;;;;;;;;;;;;;5162752;27;20009;-45
2023/10/23 03:23:15;;;;;;;;;;;;;;;;;;5171064;27;20375;-46
2023/10/23 03:25:41;;;;;;;;;;;;;;;;;;5170579;27;20630;-44
2023/10/23 03:28:06;;;;;;;;;;;;;;;;;;5152742;27;19973;-43
2023/10/23 03:30:31;;;;;;;;;;;;;;;;;;5128581;28;19927;-44
2023/10/23 03:32:57;;;;;;;;;;;;;;;;;;5129410;28;19955;-44
2023/10/23 03:35:22;;;;;;;;;;;;;;;;;;5128804;28;20341;-45
2023/10/23 03:37:48;;;;;;;;;;;;;;;;;;5133040;27;19933;-43
2023/10/23 03:40:13;;;;;;;;;;;;;;;;;;5148047;27;20384;-43
2023/10/23 03:42:39;;;;;;;;;;;;;;;;;;5149262;27;20428;-43
2023/10/23 03:45:04;;;;;;;;;;;;;;;;;;5150095;27;19930;-44
2023/10/23 03:47:30;;;;;;;;;;;;;;;;;;5149178;27;20494;-44
2023/10/23 03:49:55;;;;;;;;;;;;;;;;;;5135751;27;19923;-44
2023/10/23 03:52:21;;;;;;;;;;;;;;;;;;5149683;27;20034;-44
2023/10/23 03:54:46;;;;;;;;;;;;;;;;;;5149825;27;20017;-44
2023/10/23 03:57:12;;;;;;;;;;;;;;;;;;5148342;27;20002;-45
2023/10/23 03:59:37;;;;;;;;;;;;;;;;;;5131432;27;20466;-45
2023/10/23 04:02:03;;;;;;;;;;;;;;;;;;5144598;27;20231;-42
2023/10/23 04:04:28;;;;;;;;;;;;;;;;;;5149404;27;19927;-44
2023/10/23 04:06:56;;;;;;;;;;;;;;;;;;5149120;27;19927;-45
2023/10/23 04:09:22;;;;;;;;;;;;;;;;;;5148350;27;19927;-45
2023/10/23 04:11:47;;;;;;;;;;;;;;;;;;5149424;27;20072;-45
2023/10/23 04:14:13;;;;;;;;;;;;;;;;;;5149393;27;19923;-47
2023/10/23 04:16:39;;;;;;;;;;;;;;;;;;5144717;27;19927;-44
2023/10/23 04:19:04;;;;;;;;;;;;;;;;;;5146748;27;20094;-44
2023/10/23 04:21:30;;;;;;;;;;;;;;;;;;5170121;27;20013;-47
2023/10/23 04:23:55;;;;;;;;;;;;;;;;;;5169400;27;19923;-47
2023/10/23 04:26:20;;;;;;;;;;;;;;;;;;5169145;27;19962;-46
2023/10/23 04:28:46;;;;;;;;;;;;;;;;;;5143497;27;20045;-44
2023/10/23 04:31:11;;;;;;;;;;;;;;;;;;5127651;28;19927;-45
2023/10/23 04:33:37;;;;;;;;;;;;;;;;;;5127485;28;20295;-45
2023/10/23 04:36:02;;;;;;;;;;;;;;;;;;5134812;27;20013;-44
2023/10/23 04:38:28;;;;;;;;;;;;;;;;;;5147644;27;20526;-45
2023/10/23 04:40:54;;;;;;;;;;;;;;;;;;5147829;27;20404;-44
2023/10/23 04:43:19;;;;;;;;;;;;;;;;;;5147300;27;19987;-44
2023/10/23 04:45:45;;;;;;;;;;;;;;;;;;5148577;27;20018;-44
2023/10/23 04:48:10;;;;;;;;;;;;;;;;;;5142348;27;20299;-46
2023/10/23 04:50:36;;;;;;;;;;;;;;;;;;5127721;28;20018;-45
2023/10/23 04:53:01;;;;;;;;;;;;;;;;;;5142622;27;19927;-44
2023/10/23 04:55:27;;;;;;;;;;;;;;;;;;5148165;27;19927;-45
2023/10/23 04:57:52;;;;;;;;;;;;;;;;;;5147436;27;19923;-43
2023/10/23 05:00:19;;;;;;;;;;;;;;;;;;5148540;27;19930;-43
2023/10/23 05:02:44;;;;;;;;;;;;;;;;;;5145818;27;19996;-44
2023/10/23 05:05:10;;;;;;;;;;;;;;;;;;5130679;27;19971;-44
2023/10/23 05:07:35;;;;;;;;;;;;;;;;;;5129137;27;20223;-45
2023/10/23 05:10:04;;;;;;;;;;;;;;;;;;5146293;27;21266;-45
2023/10/23 05:12:29;;;;;;;;;;;;;;;;;;5136293;27;19929;-44
2023/10/23 05:14:54;;;;;;;;;;;;;;;;;;5145193;27;19923;-45
2023/10/23 05:17:21;;;;;;;;;;;;;;;;;;5146191;27;20399;-45
2023/10/23 05:19:47;;;;;;;;;;;;;;;;;;5143886;27;20370;-46
2023/10/23 05:22:13;;;;;;;;;;;;;;;;;;5144597;27;19931;-43
2023/10/23 05:24:38;;;;;;;;;;;;;;;;;;5140295;27;20009;-45
2023/10/23 05:27:04;;;;;;;;;;;;;;;;;;5145876;27;20014;-44
2023/10/23 05:29:29;;;;;;;;;;;;;;;;;;5136069;27;19928;-46
2023/10/23 05:31:54;;;;;;;;;;;;;;;;;;5136916;27;20010;-45
2023/10/23 05:34:20;;;;;;;;;;;;;;;;;;5138527;27;19927;-43
2023/10/23 05:36:46;;;;;;;;;;;;;;;;;;5133154;27;20029;-45
2023/10/23 05:39:11;;;;;;;;;;;;;;;;;;5139583;27;19926;-45
2023/10/23 05:41:37;;;;;;;;;;;;;;;;;;5141211;27;19931;-43
2023/10/23 05:44:03;;;;;;;;;;;;;;;;;;5142913;27;20375;-48
2023/10/23 05:46:28;;;;;;;;;;;;;;;;;;5140246;27;19927;-45
2023/10/23 05:48:54;;;;;;;;;;;;;;;;;;5136848;27;19927;-45
2023/10/23 05:51:20;;;;;;;;;;;;;;;;;;5138184;27;19934;-46
2023/10/23 05:53:46;;;;;;;;;;;;;;;;;;5147606;27;19923;-44
2023/10/23 05:56:11;;;;;;;;;;;;;;;;;;5144196;27;19949;-46
2023/10/23 05:58:37;;;;;;;;;;;;;;;;;;5125962;27;20397;-47
2023/10/23 06:01:02;;;;;;;;;;;;;;;;;;5125889;27;19923;-46
2023/10/23 06:03:28;;;;;;;;;;;;;;;;;;5118428;27;20311;-46
2023/10/23 06:05:53;;;;;;;;;;;;;;;;;;5123240;27;19941;-47
2023/10/23 06:08:19;;;;;;;;;;;;;;;;;;5130672;27;20265;-46
2023/10/23 06:10:44;;;;;;;;;;;;;;;;;;5133283;27;19927;-45
2023/10/23 06:13:10;;;;;;;;;;;;;;;;;;5138971;27;19927;-46
2023/10/23 06:15:35;;;;;;;;;;;;;;;;;;5127116;27;19965;-44
2023/10/23 06:18:01;;;;;;;;;;;;;;;;;;5133864;27;20676;-45
2023/10/23 06:20:26;;;;;;;;;;;;;;;;;;5138745;27;20006;-45
2023/10/23 06:22:52;;;;;;;;;;;;;;;;;;5135718;27;21302;-46
2023/10/23 06:25:17;;;;;;;;;;;;;;;;;;5134226;27;19946;-44
2023/10/23 06:27:42;;;;;;;;;;;;;;;;;;5133914;27;19930;-44
2023/10/23 06:30:08;;;;;;;;;;;;;;;;;;5128618;27;19927;-44
2023/10/23 06:32:34;;;;;;;;;;;;;;;;;;5131892;27;19953;-45
2023/10/23 06:34:59;;;;;;;;;;;;;;;;;;5131473;27;20051;-44
2023/10/23 06:37:25;;;;;;;;;;;;;;;;;;5125411;27;19986;-49
2023/10/23 06:39:50;;;;;;;;;;;;;;;;;;5137188;27;19933;-46
2023/10/23 06:42:15;;;;;;;;;;;;;;;;;;5132691;27;20006;-45
2023/10/23 06:44:41;;;;;;;;;;;;;;;;;;5135116;27;19942;-45
2023/10/23 06:47:07;;;;;;;;;;;;;;;;;;5138032;27;19980;-44
2023/10/23 06:49:32;;;;;;;;;;;;;;;;;;5129810;27;20348;-43
2023/10/23 06:51:57;;;;;;;;;;;;;;;;;;5138370;27;19966;-45
2023/10/23 06:54:24;;;;;;;;;;;;;;;;;;5127252;27;19927;-44
2023/10/23 06:56:49;;;;;;;;;;;;;;;;;;5130756;27;20402;-46
2023/10/23 06:59:15;;;;;;;;;;;;;;;;;;5129249;27;20533;-49
2023/10/23 07:01:40;;;;;;;;;;;;;;;;;;5130455;27;20581;-43
2023/10/23 07:04:10;;;;;;;;;;;;;;;;;;5117415;27;20359;-43
2023/10/23 07:06:35;;;;;;;;;;;;;;;;;;5125039;27;20466;-43
2023/10/23 07:09:01;;;;;;;;;;;;;;;;;;5120092;27;19927;-44
2023/10/23 07:11:26;;;;;;;;;;;;;;;;;;5120297;27;20429;-43
2023/10/23 07:13:52;;;;;;;;;;;;;;;;;;5130838;27;20034;-46
2023/10/23 07:16:18;;;;;;;;;;;;;;;;;;5137650;27;19926;-44
2023/10/23 07:18:45;;;;;;;;;;;;;;;;;;5137575;27;19923;-44
2023/10/23 07:21:10;;;;;;;;;;;;;;;;;;5131754;27;19928;-43
2023/10/23 07:23:36;;;;;;;;;;;;;;;;;;5139427;27;19923;-45
2023/10/23 07:26:02;;;;;;;;;;;;;;;;;;5139671;27;20284;-43
2023/10/23 07:28:27;;;;;;;;;;;;;;;;;;5135695;27;19923;-45
2023/10/23 07:30:53;;;;;;;;;;;;;;;;;;5130057;27;20011;-43
2023/10/23 07:33:18;;;;;;;;;;;;;;;;;;5142634;27;20353;-44
2023/10/23 07:35:44;;;;;;;;;;;;;;;;;;5139114;27;19923;-54
2023/10/23 07:38:18;;;;;;;;;;;;;;;;;;5133414;27;19927;-44
2023/10/23 07:40:44;;;;;;;;;;;;;;;;;;5138150;27;19967;-43
2023/10/23 07:43:10;;;;;;;;;;;;;;;;;;5134702;27;19994;-43
2023/10/23 07:45:35;;;;;;;;;;;;;;;;;;5138836;27;19923;-45
2023/10/23 07:48:01;;;;;;;;;;;;;;;;;;5133966;27;20073;-43
2023/10/23 07:50:27;;;;;;;;;;;;;;;;;;5137071;27;20003;-43
2023/10/23 07:52:52;;;;;;;;;;;;;;;;;;5141425;27;19951;-44
2023/10/23 07:55:18;;;;;;;;;;;;;;;;;;5139157;27;19923;-48
2023/10/23 07:57:43;;;;;;;;;;;;;;;;;;5135452;27;20344;-45
2023/10/23 08:00:09;;;;;;;;;;;;;;;;;;5142243;27;19927;-46
2023/10/23 08:02:34;;;;;;;;;;;;;;;;;;5139074;27;20022;-43
2023/10/23 08:05:00;;;;;;;;;;;;;;;;;;5141607;27;19927;-45
2023/10/23 08:07:25;;;;;;;;;;;;;;;;;;5137871;27;20245;-45
2023/10/23 08:09:51;;;;;;;;;;;;;;;;;;5124037;27;20196;-47
2023/10/23 08:12:16;;;;;;;;;;;;;;;;;;5124292;27;20002;-45
2023/10/23 08:14:42;;;;;;;;;;;;;;;;;;5129213;27;20283;-45
2023/10/23 08:17:07;;;;;;;;;;;;;;;;;;5132468;27;20005;-44
2023/10/23 08:19:33;;;;;;;;;;;;;;;;;;5145091;27;19927;-44
2023/10/23 08:21:59;;;;;;;;;;;;;;;;;;5144000;27;20026;-56
2023/10/23 08:24:24;;;;;;;;;;;;;;;;;;5140835;27;19930;-56
2023/10/23 08:26:50;;;;;;;;;;;;;;;;;;5129134;27;19979;-47
2023/10/23 08:29:15;;;;;;;;;;;;;;;;;;5129278;27;19970;-48
2023/10/23 08:31:42;;;;;;;;;;;;;;;;;;5125505;27;19927;-48
2023/10/23 08:34:07;;;;;;;;;;;;;;;;;;5127133;27;19927;-44
2023/10/23 08:36:33;;;;;;;;;;;;;;;;;;5125368;27;19927;-44
2023/10/23 08:38:59;;;;;;;;;;;;;;;;;;5118957;27;19927;-45
2023/10/23 08:41:25;;;;;;;;;;;;;;;;;;5130030;27;20413;-45
2023/10/23 08:43:50;;;;;;;;;;;;;;;;;;5120318;27;19993;-44
2023/10/23 08:46:16;;;;;;;;;;;;;;;;;;5131706;27;20021;-44
2023/10/23 08:48:41;;;;;;;;;;;;;;;;;;5133455;27;20367;-44
2023/10/23 08:51:07;;;;;;;;;;;;;;;;;;5137751;27;20303;-45
2023/10/23 08:53:33;;;;;;;;;;;;;;;;;;5134626;27;20294;-42
2023/10/23 08:55:59;;;;;;;;;;;;;;;;;;5132161;27;19923;-42
2023/10/23 08:58:24;;;;;;;;;;;;;;;;;;5131693;27;20016;-42
2023/10/23 09:00:50;;;;;;;;;;;;;;;;;;5137862;27;20427;-41
2023/10/23 09:03:15;;;;;;;;;;;;;;;;;;5135344;27;19930;-42
2023/10/23 09:05:41;;;;;;;;;;;;;;;;;;5132871;27;19931;-42
2023/10/23 09:08:06;;;;;;;;;;;;;;;;;;5136440;27;20444;-45
2023/10/23 09:10:32;;;;;;;;;;;;;;;;;;5130729;27;20371;-44
2023/10/23 09:12:57;;;;;;;;;;;;;;;;;;5136389;27;19993;-42
2023/10/23 09:15:24;;;;;;;;;;;;;;;;;;5132065;27;20148;-44
2023/10/23 09:17:50;;;;;;;;;;;;;;;;;;5132804;27;20430;-42
2023/10/23 09:20:15;;;;;;;;;;;;;;;;;;5135394;27;19966;-42
2023/10/23 09:22:41;;;;;;;;;;;;;;;;;;5130813;27;20013;-44
2023/10/23 09:25:06;;;;;;;;;;;;;;;;;;5131207;27;19946;-43
2023/10/23 09:27:32;;;;;;;;;;;;;;;;;;5131792;27;19927;-42
2023/10/23 09:29:57;;;;;;;;;;;;;;;;;;5066091;28;20313;-42
2023/10/23 09:32:22;;;;;;;;;;;;;;;;;;5061628;28;19975;-43
2023/10/23 09:34:48;;;;;;;;;;;;;;;;;;5066236;28;19932;-43
2023/10/23 09:37:13;;;;;;;;;;;;;;;;;;5060666;28;20026;-42
2023/10/23 09:39:39;;;;;;;;;;;;;;;;;;5060233;28;19935;-42
2023/10/23 09:42:05;;;;;;;;;;;;;;;;;;5067429;28;19928;-41
2023/10/23 09:44:30;;;;;;;;;;;;;;;;;;5064666;28;19928;-41
2023/10/23 09:46:57;;;;;;;;;;;;;;;;;;5074768;27;20035;-42
2023/10/23 09:49:22;;;;;;;;;;;;;;;;;;5129965;27;19938;-42
2023/10/23 09:51:48;;;;;;;;;;;;;;;;;;5132802;27;19927;-43
2023/10/23 09:54:15;;;;;;;;;;;;;;;;;;5140207;27;20426;-44
2023/10/23 09:56:41;;;;;;;;;;;;;;;;;;5132941;27;19977;-44
2023/10/23 09:59:07;;;;;;;;;;;;;;;;;;5130586;27;20047;-46
2023/10/23 10:01:33;;;;;;;;;;;;;;;;;;5134910;27;19969;-44
2023/10/23 10:03:58;;;;;;;;;;;;;;;;;;5135776;27;19927;-44
2023/10/23 10:06:24;;;;;;;;;;;;;;;;;;5131980;27;19976;-42
2023/10/23 10:08:50;;;;;;;;;;;;;;;;;;5130891;27;19987;-43
2023/10/23 10:11:15;;;;;;;;;;;;;;;;;;5131707;27;20476;-42
2023/10/23 10:13:41;;;;;;;;;;;;;;;;;;5135321;27;19931;-43
2023/10/23 10:16:06;;;;;;;;;;;;;;;;;;5138309;27;19976;-44
2023/10/23 10:18:32;;;;;;;;;;;;;;;;;;5133393;27;19927;-42
2023/10/23 10:20:57;;;;;;;;;;;;;;;;;;5128979;27;19932;-43
2023/10/23 10:23:22;;;;;;;;;;;;;;;;;;5134284;27;20390;-43
2023/10/23 10:25:48;;;;;;;;;;;;;;;;;;5134246;27;20488;-43
2023/10/23 10:28:14;;;;;;;;;;;;;;;;;;5132013;27;19967;-43
2023/10/23 10:30:40;;;;;;;;;;;;;;;;;;5131140;27;19931;-44
2023/10/23 10:33:06;;;;;;;;;;;;;;;;;;5137696;27;20231;-43
2023/10/23 10:35:52;;;;;;;;;;;;;;;;;;5122985;27;19931;-43
2023/10/23 10:38:17;;;;;;;;;;;;;;;;;;5130848;27;20299;-43
2023/10/23 10:40:43;;;;;;;;;;;;;;;;;;5126876;27;20450;-43
2023/10/23 10:43:08;;;;;;;;;;;;;;;;;;5133680;27;19988;-42
2023/10/23 10:45:34;;;;;;;;;;;;;;;;;;5135253;27;20050;-42
2023/10/23 10:47:59;;;;;;;;;;;;;;;;;;5126746;27;20069;-43
2023/10/23 10:50:25;;;;;;;;;;;;;;;;;;5135679;27;19927;-45
2023/10/23 10:52:50;;;;;;;;;;;;;;;;;;5141388;27;20055;-44
2023/10/23 10:55:17;;;;;;;;;;;;;;;;;;5139049;27;20789;-42
2023/10/23 10:57:42;;;;;;;;;;;;;;;;;;5137982;27;20283;-42
2023/10/23 11:00:10;;;;;;;;;;;;;;;;;;5145024;27;20363;-44
2023/10/23 11:02:36;;;;;;;;;;;;;;;;;;5130413;27;20406;-42
2023/10/23 11:05:02;;;;;;;;;;;;;;;;;;5138880;27;20371;-43
2023/10/23 11:07:27;;;;;;;;;;;;;;;;;;5139722;27;19971;-42
2023/10/23 11:09:53;;;;;;;;;;;;;;;;;;5134581;27;20371;-43
2023/10/23 11:12:19;;;;;;;;;;;;;;;;;;5133799;27;20379;-50
2023/10/23 11:14:44;;;;;;;;;;;;;;;;;;5140314;27;19950;-42
2023/10/23 11:17:09;;;;;;;;;;;;;;;;;;5137036;27;19931;-44
2023/10/23 11:19:35;;;;;;;;;;;;;;;;;;5135570;27;19923;-49
2023/10/23 11:22:00;;;;;;;;;;;;;;;;;;5136345;27;20401;-43
2023/10/23 11:24:26;;;;;;;;;;;;;;;;;;5141435;27;19935;-45
2023/10/23 11:26:51;;;;;;;;;;;;;;;;;;5136325;27;19931;-44
2023/10/23 11:29:17;;;;;;;;;;;;;;;;;;5134854;27;20395;-42
2023/10/23 11:31:42;;;;;;;;;;;;;;;;;;5131434;27;19927;-45
2023/10/23 11:34:09;;;;;;;;;;;;;;;;;;5132603;27;20014;-44
2023/10/23 11:36:34;;;;;;;;;;;;;;;;;;5128457;27;19927;-43
2023/10/23 11:39:00;;;;;;;;;;;;;;;;;;5134435;27;19938;-45
2023/10/23 11:41:25;;;;;;;;;;;;;;;;;;5133927;27;19924;-44
2023/10/23 11:43:51;;;;;;;;;;;;;;;;;;5128811;27;19927;-44
2023/10/23 11:46:16;;;;;;;;;;;;;;;;;;5132199;27;20806;-45
2023/10/23 11:48:42;;;;;;;;;;;;;;;;;;5131664;27;20167;-42
2023/10/23 11:51:07;;;;;;;;;;;;;;;;;;5140747;27;19927;-42
2023/10/23 11:53:33;;;;;;;;;;;;;;;;;;5129681;27;21641;-42
2023/10/23 11:55:58;;;;;;;;;;;;;;;;;;5131742;27;20013;-43
2023/10/23 11:58:24;;;;;;;;;;;;;;;;;;5133111;27;20018;-43
2023/10/23 12:00:49;;;;;;;;;;;;;;;;;;5146269;27;19967;-43
2023/10/23 12:03:15;;;;;;;;;;;;;;;;;;5134111;27;19937;-43
2023/10/23 12:05:40;;;;;;;;;;;;;;;;;;5122268;27;19931;-45
2023/10/23 12:08:06;;;;;;;;;;;;;;;;;;5141522;27;20294;-44
2023/10/23 12:10:33;;;;;;;;;;;;;;;;;;5140275;27;19967;-42
2023/10/23 12:12:59;;;;;;;;;;;;;;;;;;5133619;27;20001;-42
2023/10/23 12:15:24;;;;;;;;;;;;;;;;;;5137734;27;19935;-43
2023/10/23 12:17:50;;;;;;;;;;;;;;;;;;5137612;27;19930;-43
2023/10/23 12:20:16;;;;;;;;;;;;;;;;;;5153936;27;19926;-42
2023/10/23 12:22:42;;;;;;;;;;;;;;;;;;5137457;27;19931;-43
2023/10/23 12:25:08;;;;;;;;;;;;;;;;;;5143142;27;20418;-45
2023/10/23 12:27:34;;;;;;;;;;;;;;;;;;5141144;27;19923;-46
2023/10/23 12:29:59;;;;;;;;;;;;;;;;;;5140002;27;19930;-43
2023/10/23 12:32:26;;;;;;;;;;;;;;;;;;5137366;27;19935;-43
2023/10/23 12:35:13;;;;;;;;;;;;;;;;;;5117403;27;19930;-42
2023/10/23 12:37:39;;;;;;;;;;;;;;;;;;5134565;27;19931;-42
2023/10/23 12:40:08;;;;;;;;;;;;;;;;;;5135755;27;19963;-43
2023/10/23 12:42:34;;;;;;;;;;;;;;;;;;5135132;27;19931;-43
2023/10/23 12:44:59;;;;;;;;;;;;;;;;;;5139832;27;19927;-44
2023/10/23 12:47:25;;;;;;;;;;;;;;;;;;5127755;27;19976;-42
2023/10/23 12:49:50;;;;;;;;;;;;;;;;;;5138927;27;20351;-42
2023/10/23 12:52:16;;;;;;;;;;;;;;;;;;5141048;27;19968;-45
2023/10/23 12:54:41;;;;;;;;;;;;;;;;;;5143196;27;20280;-43
2023/10/23 12:57:07;;;;;;;;;;;;;;;;;;5140559;27;19923;-42
2023/10/23 12:59:32;;;;;;;;;;;;;;;;;;5140961;27;20418;-44
2023/10/23 13:01:58;;;;;;;;;;;;;;;;;;5141615;27;19927;-46
2023/10/23 13:04:23;;;;;;;;;;;;;;;;;;5145516;27;19927;-43
2023/10/23 13:06:49;;;;;;;;;;;;;;;;;;5145861;27;19972;-41
2023/10/23 13:09:15;;;;;;;;;;;;;;;;;;5145762;27;20025;-41
2023/10/23 13:11:40;;;;;;;;;;;;;;;;;;5145306;27;20422;-41
2023/10/23 13:14:06;;;;;;;;;;;;;;;;;;5142681;27;19930;-43
2023/10/23 13:16:31;;;;;;;;;;;;;;;;;;5142866;27;19957;-44
2023/10/23 13:18:57;;;;;;;;;;;;;;;;;;5145258;27;20236;-41
2023/10/23 13:21:22;;;;;;;;;;;;;;;;;;5147819;27;20313;-43
2023/10/23 13:23:56;;;;;;;;;;;;;;;;;;5146336;27;20328;-41
2023/10/23 13:26:23;;;;;;;;;;;;;;;;;;5139723;27;20357;-43
2023/10/23 13:28:48;;;;;;;;;;;;;;;;;;5142256;27;19970;-40
2023/10/23 13:31:14;;;;;;;;;;;;;;;;;;5132753;27;20392;-41
2023/10/23 13:33:40;;;;;;;;;;;;;;;;;;5142722;27;19931;-42
2023/10/23 13:36:05;;;;;;;;;;;;;;;;;;5142637;27;20407;-42
2023/10/23 13:38:32;;;;;;;;;;;;;;;;;;5128391;27;19927;-41
2023/10/23 13:40:57;;;;;;;;;;;;;;;;;;5137359;27;20004;-42
2023/10/23 13:43:24;;;;;;;;;;;;;;;;;;5140102;27;19974;-42
2023/10/23 13:45:50;;;;;;;;;;;;;;;;;;5143519;27;19923;-41
2023/10/23 13:48:15;;;;;;;;;;;;;;;;;;5142512;27;19958;-41
2023/10/23 13:50:41;;;;;;;;;;;;;;;;;;5145104;27;19931;-42
2023/10/23 13:53:06;;;;;;;;;;;;;;;;;;5141218;27;20022;-41
2023/10/23 13:55:34;;;;;;;;;;;;;;;;;;5130440;27;19928;-43
2023/10/23 13:57:59;;;;;;;;;;;;;;;;;;5127431;27;19973;-42
2023/10/23 14:00:25;;;;;;;;;;;;;;;;;;5146657;27;20010;-44
2023/10/23 14:02:50;;;;;;;;;;;;;;;;;;5144988;27;20382;-42
2023/10/23 14:05:16;;;;;;;;;;;;;;;;;;5135360;27;19976;-41
2023/10/23 14:07:42;;;;;;;;;;;;;;;;;;5138782;27;20042;-42
2023/10/23 14:10:07;;;;;;;;;;;;;;;;;;5143041;27;20379;-43
2023/10/23 14:12:33;;;;;;;;;;;;;;;;;;5148689;27;20022;-41
2023/10/23 14:14:58;;;;;;;;;;;;;;;;;;5149948;27;20052;-42
2023/10/23 14:17:24;;;;;;;;;;;;;;;;;;5148296;27;20485;-45
2023/10/23 14:19:50;;;;;;;;;;;;;;;;;;5142287;27;19931;-41
2023/10/23 14:22:15;;;;;;;;;;;;;;;;;;5139554;27;20010;-43
2023/10/23 14:24:41;;;;;;;;;;;;;;;;;;5146030;27;19987;-42
2023/10/23 14:27:07;;;;;;;;;;;;;;;;;;5148044;27;20272;-43
2023/10/23 14:29:32;;;;;;;;;;;;;;;;;;5149295;27;19931;-42
2023/10/23 14:31:58;;;;;;;;;;;;;;;;;;5148779;27;19927;-42
2023/10/23 14:34:23;;;;;;;;;;;;;;;;;;5144126;27;20022;-43
2023/10/23 14:36:49;;;;;;;;;;;;;;;;;;5148162;27;19972;-41
2023/10/23 14:39:14;;;;;;;;;;;;;;;;;;5134212;27;20303;-40
2023/10/23 14:41:40;;;;;;;;;;;;;;;;;;5146366;27;20399;-43
2023/10/23 14:44:05;;;;;;;;;;;;;;;;;;5147563;27;19980;-41
2023/10/23 14:46:31;;;;;;;;;;;;;;;;;;5144866;27;19930;-43
2023/10/23 14:48:59;;;;;;;;;;;;;;;;;;5133591;27;19924;-42
2023/10/23 14:51:24;;;;;;;;;;;;;;;;;;5143576;27;20231;-41
2023/10/23 14:53:50;;;;;;;;;;;;;;;;;;5140330;27;20021;-45
2023/10/23 14:56:16;;;;;;;;;;;;;;;;;;5145229;27;19958;-41
2023/10/23 14:58:41;;;;;;;;;;;;;;;;;;5146454;27;19935;-42
2023/10/23 15:01:07;;;;;;;;;;;;;;;;;;5149039;27;19927;-44
2023/10/23 15:03:33;;;;;;;;;;;;;;;;;;5150183;27;20520;-42
2023/10/23 15:05:59;;;;;;;;;;;;;;;;;;5149609;27;20423;-43
2023/10/23 15:08:24;;;;;;;;;;;;;;;;;;5149223;27;19927;-41
2023/10/23 15:10:50;;;;;;;;;;;;;;;;;;5148942;27;19923;-43
2023/10/23 15:13:16;;;;;;;;;;;;;;;;;;5149520;27;19973;-44
2023/10/23 15:15:41;;;;;;;;;;;;;;;;;;5149908;27;19958;-42
2023/10/23 15:18:06;;;;;;;;;;;;;;;;;;5143966;27;20218;-42
2023/10/23 15:20:32;;;;;;;;;;;;;;;;;;5144920;27;19958;-42
2023/10/23 15:22:57;;;;;;;;;;;;;;;;;;5148366;27;19927;-41
2023/10/23 15:25:23;;;;;;;;;;;;;;;;;;5149658;27;20145;-41
2023/10/23 15:27:49;;;;;;;;;;;;;;;;;;5146716;27;19999;-43
2023/10/23 15:30:14;;;;;;;;;;;;;;;;;;5133727;27;19927;-41
2023/10/23 15:32:40;;;;;;;;;;;;;;;;;;5148372;27;20286;-41
2023/10/23 15:35:05;;;;;;;;;;;;;;;;;;5148701;27;19931;-41
2023/10/23 15:37:33;;;;;;;;;;;;;;;;;;5148268;27;19931;-44
2023/10/23 15:39:58;;;;;;;;;;;;;;;;;;5130383;27;20315;-42
2023/10/23 15:42:24;;;;;;;;;;;;;;;;;;5147986;27;20026;-42
2023/10/23 15:44:49;;;;;;;;;;;;;;;;;;5147024;27;20014;-41
2023/10/23 15:47:14;;;;;;;;;;;;;;;;;;5148723;27;20403;-43
2023/10/23 15:49:40;;;;;;;;;;;;;;;;;;5148467;27;19923;-42
2023/10/23 15:52:06;;;;;;;;;;;;;;;;;;5148693;27;19927;-41
2023/10/23 15:54:32;;;;;;;;;;;;;;;;;;5149248;27;19923;-43
2023/10/23 15:56:57;;;;;;;;;;;;;;;;;;5147519;27;20026;-42
2023/10/23 15:59:23;;;;;;;;;;;;;;;;;;5148432;27;19931;-43
2023/10/23 16:01:49;;;;;;;;;;;;;;;;;;5147730;27;19923;-41
2023/10/23 16:04:14;;;;;;;;;;;;;;;;;;5148575;27;19987;-41
2023/10/23 16:06:40;;;;;;;;;;;;;;;;;;5149138;27;20014;-43
2023/10/23 16:09:05;;;;;;;;;;;;;;;;;;5135021;27;20056;-43
2023/10/23 16:11:47;;;;;;;;;;;;;;;;;;5144688;27;20018;-41
2023/10/23 16:14:12;;;;;;;;;;;;;;;;;;5149396;27;20007;-42
2023/10/23 16:16:38;;;;;;;;;;;;;;;;;;5140049;27;20022;-42
2023/10/23 16:19:04;;;;;;;;;;;;;;;;;;5148872;27;19969;-41
2023/10/23 16:21:30;;;;;;;;;;;;;;;;;;5153844;27;20022;-43
2023/10/23 16:23:55;;;;;;;;;;;;;;;;;;5147637;27;20474;-42
2023/10/23 16:26:21;;;;;;;;;;;;;;;;;;5148712;27;19945;-42
2023/10/23 16:28:46;;;;;;;;;;;;;;;;;;5148128;27;20022;-42
2023/10/23 16:31:11;;;;;;;;;;;;;;;;;;5148020;27;19974;-42
2023/10/23 16:33:37;;;;;;;;;;;;;;;;;;5146995;27;20018;-44
2023/10/23 16:36:02;;;;;;;;;;;;;;;;;;5126282;27;19938;-44